sensor_id;sensor_type;location;lat;lon;timestamp;P1;durP1;ratioP1;P2;durP2;ratioP2
27863;SDS011;15980;51.092;13.916;2024-03-08T00:02:14;46.10;;;18.08;;
27863;SDS011;15980;51.092;13.916;2024-03-08T00:12:14;48.38;;;19.65;;
27863;SDS011;15980;51.092;13.916;2024-03-08T00:22:15;52.63;;;19.83;;
27863;SDS011;15980;51.092;13.916;2024-03-08T00:32:16;55.00;;;20.90;;
27863;SDS011;15980;51.092;13.916;2024-03-08T00:42:17;56.88;;;20.63;;
27863;SDS011;15980;51.092;13.916;2024-03-08T00:52:18;50.77;;;19.47;;
27863;SDS011;15980;51.092;13.916;2024-03-08T01:02:19;58.53;;;20.40;;
27863;SDS011;15980;51.092;13.916;2024-03-08T01:12:19;60.08;;;20.92;;
27863;SDS011;15980;51.092;13.916;2024-03-08T01:22:20;59.40;;;21.45;;
27863;SDS011;15980;51.092;13.916;2024-03-08T01:32:20;52.53;;;20.17;;
27863;SDS011;15980;51.092;13.916;2024-03-08T01:42:20;61.53;;;22.13;;
27863;SDS011;15980;51.092;13.916;2024-03-08T01:52:21;60.80;;;21.75;;
27863;SDS011;15980;51.092;13.916;2024-03-08T02:02:21;54.72;;;20.30;;
27863;SDS011;15980;51.092;13.916;2024-03-08T02:12:21;55.58;;;21.13;;
27863;SDS011;15980;51.092;13.916;2024-03-08T02:22:22;60.70;;;21.05;;
27863;SDS011;15980;51.092;13.916;2024-03-08T02:32:22;55.92;;;23.40;;
27863;SDS011;15980;51.092;13.916;2024-03-08T02:42:23;46.60;;;16.30;;
27863;SDS011;15980;51.092;13.916;2024-03-08T02:52:23;68.10;;;23.45;;
27863;SDS011;15980;51.092;13.916;2024-03-08T03:02:24;67.82;;;24.25;;
27863;SDS011;15980;51.092;13.916;2024-03-08T03:12:24;67.97;;;24.90;;
27863;SDS011;15980;51.092;13.916;2024-03-08T03:22:24;71.93;;;23.38;;
27863;SDS011;15980;51.092;13.916;2024-03-08T03:32:24;76.32;;;25.45;;
27863;SDS011;15980;51.092;13.916;2024-03-08T03:42:25;67.78;;;24.85;;
27863;SDS011;15980;51.092;13.916;2024-03-08T03:52:25;71.10;;;24.63;;
27863;SDS011;15980;51.092;13.916;2024-03-08T04:02:25;79.10;;;25.15;;
27863;SDS011;15980;51.092;13.916;2024-03-08T04:12:26;83.30;;;26.95;;
27863;SDS011;15980;51.092;13.916;2024-03-08T04:22:26;70.90;;;25.42;;
27863;SDS011;15980;51.092;13.916;2024-03-08T04:32:26;68.28;;;24.77;;
27863;SDS011;15980;51.092;13.916;2024-03-08T04:42:27;74.47;;;27.15;;
27863;SDS011;15980;51.092;13.916;2024-03-08T04:52:28;80.83;;;27.43;;
27863;SDS011;15980;51.092;13.916;2024-03-08T05:02:28;76.00;;;25.88;;
27863;SDS011;15980;51.092;13.916;2024-03-08T05:12:29;72.47;;;25.67;;
27863;SDS011;15980;51.092;13.916;2024-03-08T05:22:29;85.07;;;28.85;;
27863;SDS011;15980;51.092;13.916;2024-03-08T05:32:29;86.47;;;27.95;;
27863;SDS011;15980;51.092;13.916;2024-03-08T05:42:30;211.10;;;81.30;;
27863;SDS011;15980;51.092;13.916;2024-03-08T05:52:30;83.68;;;28.02;;
27863;SDS011;15980;51.092;13.916;2024-03-08T06:02:31;81.28;;;26.88;;
27863;SDS011;15980;51.092;13.916;2024-03-08T06:12:31;86.65;;;28.42;;
27863;SDS011;15980;51.092;13.916;2024-03-08T06:22:31;76.65;;;27.77;;
27863;SDS011;15980;51.092;13.916;2024-03-08T06:32:32;96.07;;;35.67;;
27863;SDS011;15980;51.092;13.916;2024-03-08T06:42:32;85.97;;;28.83;;
27863;SDS011;15980;51.092;13.916;2024-03-08T06:52:32;90.72;;;31.65;;
27863;SDS011;15980;51.092;13.916;2024-03-08T07:02:33;80.65;;;28.63;;
27863;SDS011;15980;51.092;13.916;2024-03-08T07:12:33;91.07;;;32.53;;
27863;SDS011;15980;51.092;13.916;2024-03-08T07:22:33;87.50;;;30.95;;
27863;SDS011;15980;51.092;13.916;2024-03-08T07:32:34;79.82;;;30.42;;
27863;SDS011;15980;51.092;13.916;2024-03-08T07:42:35;77.25;;;28.52;;
27863;SDS011;15980;51.092;13.916;2024-03-08T07:52:35;77.03;;;27.75;;
27863;SDS011;15980;51.092;13.916;2024-03-08T08:02:35;73.97;;;27.08;;
27863;SDS011;15980;51.092;13.916;2024-03-08T08:12:36;64.05;;;24.30;;
27863;SDS011;15980;51.092;13.916;2024-03-08T08:22:36;60.13;;;23.48;;
27863;SDS011;15980;51.092;13.916;2024-03-08T08:32:36;61.67;;;23.40;;
27863;SDS011;15980;51.092;13.916;2024-03-08T08:42:37;48.30;;;19.55;;
27863;SDS011;15980;51.092;13.916;2024-03-08T08:52:38;45.10;;;18.45;;
27863;SDS011;15980;51.092;13.916;2024-03-08T09:02:39;49.60;;;19.10;;
27863;SDS011;15980;51.092;13.916;2024-03-08T09:12:39;41.50;;;18.25;;
27863;SDS011;15980;51.092;13.916;2024-03-08T09:22:43;51.92;;;18.23;;
27863;SDS011;15980;51.092;13.916;2024-03-08T09:32:44;45.55;;;18.15;;
27863;SDS011;15980;51.092;13.916;2024-03-08T09:42:44;40.50;;;15.85;;
27863;SDS011;15980;51.092;13.916;2024-03-08T09:52:48;34.33;;;15.10;;
27863;SDS011;15980;51.092;13.916;2024-03-08T10:02:49;35.65;;;15.70;;
27863;SDS011;15980;51.092;13.916;2024-03-08T10:12:51;37.55;;;16.00;;
27863;SDS011;15980;51.092;13.916;2024-03-08T10:22:52;35.10;;;15.75;;
27863;SDS011;15980;51.092;13.916;2024-03-08T10:32:52;35.20;;;15.35;;
27863;SDS011;15980;51.092;13.916;2024-03-08T10:42:56;32.78;;;13.75;;
27863;SDS011;15980;51.092;13.916;2024-03-08T10:52:58;31.13;;;14.77;;
27863;SDS011;15980;51.092;13.916;2024-03-08T11:02:59;41.17;;;18.77;;
27863;SDS011;15980;51.092;13.916;2024-03-08T11:13:00;49.53;;;20.65;;
27863;SDS011;15980;51.092;13.916;2024-03-08T11:23:00;44.97;;;20.00;;
27863;SDS011;15980;51.092;13.916;2024-03-08T11:33:03;46.45;;;19.73;;
27863;SDS011;15980;51.092;13.916;2024-03-08T11:43:04;47.40;;;21.02;;
27863;SDS011;15980;51.092;13.916;2024-03-08T11:53:04;45.15;;;18.40;;
27863;SDS011;15980;51.092;13.916;2024-03-08T12:03:06;43.95;;;19.92;;
27863;SDS011;15980;51.092;13.916;2024-03-08T12:13:08;58.13;;;24.00;;
27863;SDS011;15980;51.092;13.916;2024-03-08T12:23:13;54.17;;;23.75;;
27863;SDS011;15980;51.092;13.916;2024-03-08T12:33:14;51.65;;;22.45;;
27863;SDS011;15980;51.092;13.916;2024-03-08T12:43:14;57.38;;;24.83;;
27863;SDS011;15980;51.092;13.916;2024-03-08T12:53:15;49.53;;;21.65;;
27863;SDS011;15980;51.092;13.916;2024-03-08T13:03:15;47.22;;;21.83;;
27863;SDS011;15980;51.092;13.916;2024-03-08T13:13:15;53.83;;;22.73;;
27863;SDS011;15980;51.092;13.916;2024-03-08T13:23:16;41.08;;;18.75;;
27863;SDS011;15980;51.092;13.916;2024-03-08T13:33:16;40.97;;;17.77;;
27863;SDS011;15980;51.092;13.916;2024-03-08T13:43:16;40.95;;;18.52;;
27863;SDS011;15980;51.092;13.916;2024-03-08T13:53:17;26.60;;;12.38;;
27863;SDS011;15980;51.092;13.916;2024-03-08T14:03:17;22.10;;;9.80;;
27863;SDS011;15980;51.092;13.916;2024-03-08T14:13:17;20.42;;;8.27;;
27863;SDS011;15980;51.092;13.916;2024-03-08T14:23:18;19.67;;;8.88;;
27863;SDS011;15980;51.092;13.916;2024-03-08T14:33:18;16.75;;;8.00;;
27863;SDS011;15980;51.092;13.916;2024-03-08T14:43:18;14.85;;;6.65;;
27863;SDS011;15980;51.092;13.916;2024-03-08T14:53:18;15.05;;;6.32;;
27863;SDS011;15980;51.092;13.916;2024-03-08T15:03:19;13.77;;;6.50;;
27863;SDS011;15980;51.092;13.916;2024-03-08T15:13:22;11.20;;;5.68;;
27863;SDS011;15980;51.092;13.916;2024-03-08T15:23:22;11.25;;;6.22;;
27863;SDS011;15980;51.092;13.916;2024-03-08T15:33:23;14.10;;;7.35;;
27863;SDS011;15980;51.092;13.916;2024-03-08T15:43:23;17.35;;;7.82;;
27863;SDS011;15980;51.092;13.916;2024-03-08T15:53:23;51.75;;;23.42;;
27863;SDS011;15980;51.092;13.916;2024-03-08T16:03:23;60.50;;;26.98;;
27863;SDS011;15980;51.092;13.916;2024-03-08T16:13:24;62.58;;;26.50;;
27863;SDS011;15980;51.092;13.916;2024-03-08T16:23:25;62.47;;;27.42;;
27863;SDS011;15980;51.092;13.916;2024-03-08T16:33:26;69.60;;;30.30;;
27863;SDS011;15980;51.092;13.916;2024-03-08T16:43:26;69.97;;;28.30;;
27863;SDS011;15980;51.092;13.916;2024-03-08T16:53:26;73.70;;;31.67;;
27863;SDS011;15980;51.092;13.916;2024-03-08T17:03:26;75.20;;;30.65;;
27863;SDS011;15980;51.092;13.916;2024-03-08T17:13:27;74.75;;;30.55;;
27863;SDS011;15980;51.092;13.916;2024-03-08T17:23:27;73.00;;;30.65;;
27863;SDS011;15980;51.092;13.916;2024-03-08T17:33:27;76.82;;;31.23;;
27863;SDS011;15980;51.092;13.916;2024-03-08T17:43:28;85.07;;;35.15;;
27863;SDS011;15980;51.092;13.916;2024-03-08T17:53:28;83.35;;;33.88;;
27863;SDS011;15980;51.092;13.916;2024-03-08T18:03:28;94.85;;;35.80;;
27863;SDS011;15980;51.092;13.916;2024-03-08T18:13:29;87.70;;;36.38;;
27863;SDS011;15980;51.092;13.916;2024-03-08T18:23:29;93.28;;;35.88;;
27863;SDS011;15980;51.092;13.916;2024-03-08T18:33:29;90.20;;;34.85;;
27863;SDS011;15980;51.092;13.916;2024-03-08T18:43:29;92.50;;;35.75;;
27863;SDS011;15980;51.092;13.916;2024-03-08T18:53:30;114.55;;;41.05;;
27863;SDS011;15980;51.092;13.916;2024-03-08T19:03:30;104.35;;;38.50;;
27863;SDS011;15980;51.092;13.916;2024-03-08T19:13:30;97.40;;;35.03;;
27863;SDS011;15980;51.092;13.916;2024-03-08T19:23:31;94.45;;;37.95;;
27863;SDS011;15980;51.092;13.916;2024-03-08T19:33:31;99.55;;;36.15;;
27863;SDS011;15980;51.092;13.916;2024-03-08T19:43:31;105.40;;;39.58;;
27863;SDS011;15980;51.092;13.916;2024-03-08T19:53:32;97.63;;;33.28;;
27863;SDS011;15980;51.092;13.916;2024-03-08T20:03:32;79.18;;;29.67;;
27863;SDS011;15980;51.092;13.916;2024-03-08T20:13:32;56.25;;;22.70;;
27863;SDS011;15980;51.092;13.916;2024-03-08T20:23:32;38.65;;;15.60;;
27863;SDS011;15980;51.092;13.916;2024-03-08T20:33:33;29.50;;;11.70;;
27863;SDS011;15980;51.092;13.916;2024-03-08T20:43:34;27.50;;;11.15;;
27863;SDS011;15980;51.092;13.916;2024-03-08T20:53:34;25.20;;;10.63;;
27863;SDS011;15980;51.092;13.916;2024-03-08T21:03:35;28.38;;;11.13;;
27863;SDS011;15980;51.092;13.916;2024-03-08T21:13:35;27.60;;;11.45;;
27863;SDS011;15980;51.092;13.916;2024-03-08T21:23:35;22.95;;;10.05;;
27863;SDS011;15980;51.092;13.916;2024-03-08T21:33:36;23.80;;;10.68;;
27863;SDS011;15980;51.092;13.916;2024-03-08T21:43:36;30.92;;;11.48;;
27863;SDS011;15980;51.092;13.916;2024-03-08T21:53:36;29.92;;;12.73;;
27863;SDS011;15980;51.092;13.916;2024-03-08T22:03:37;29.15;;;11.60;;
27863;SDS011;15980;51.092;13.916;2024-03-08T22:13:37;30.60;;;11.13;;
27863;SDS011;15980;51.092;13.916;2024-03-08T22:23:37;27.15;;;11.50;;
27863;SDS011;15980;51.092;13.916;2024-03-08T22:33:37;34.33;;;12.90;;
27863;SDS011;15980;51.092;13.916;2024-03-08T22:43:38;31.45;;;11.80;;
27863;SDS011;15980;51.092;13.916;2024-03-08T22:53:38;32.22;;;12.63;;
27863;SDS011;15980;51.092;13.916;2024-03-08T23:03:39;32.92;;;11.35;;
27863;SDS011;15980;51.092;13.916;2024-03-08T23:13:39;29.38;;;12.50;;
27863;SDS011;15980;51.092;13.916;2024-03-08T23:23:40;30.42;;;12.38;;
27863;SDS011;15980;51.092;13.916;2024-03-08T23:33:40;30.20;;;11.77;;
27863;SDS011;15980;51.092;13.916;2024-03-08T23:43:40;26.38;;;9.88;;
27863;SDS011;15980;51.092;13.916;2024-03-08T23:53:41;30.90;;;11.10;;
